West Mifflin, PA

3:18 AM EST on December 29, 2014 (GMT -0500)
Lower Gates Manor | Change Station
CLOSE
Current Station
Personal Weather Station
Location: Munhall, PA
Elevation: 1050 ft
Nearby Weather Stations

Elev 1050 ft 40.39 °N, 79.92 °W | Updated 3 minutes ago

Overcast
Overcast
33.1 °F
Feels Like 33 °F
N
1.7
Wind Variable Wind from West

Today
High -- | Low -- °F
--% Chance of Precip.
Yesterday
High -- | Low -- °F
Precip. -- in
7:42 AM 5:01 PM
First Quarter, 56% visible
Pressure 30.17 in
Visibility 10.0 miles
Clouds Mostly Cloudy 2300 ft
Overcast 3300 ft
Windchill 33 °F
Dew Point 28 °F
Humidity 81%
Rainfall 0.00 in
Snow Depth Not available.
UV 0 out of 12
Pollen .10 out of 12
Air Quality Not available.
Flu Activity Not available.
SPECI KAGC 290800Z 34008KT 10SM BKN023 OVC033 01/M04 A3017 RMK AO2 T00061039

More Conditions Fewer Conditions

Pressure 30.17 in
Visibility 10.0 miles
Clouds Mostly Cloudy 2300 ft
Overcast 3300 ft
Windchill 33 °F
Dew Point 28 °F
Humidity 81%
Rainfall 0.00 in
Snow Depth Not available.
UV 0 out of 12
Pollen .10 out of 12
Air Quality Not available.
Flu Activity Not available.
SPECI KAGC 290800Z 34008KT 10SM BKN023 OVC033 01/M04 A3017 RMK AO2 T00061039

More Conditions Fewer Conditions

10-Day Weather Forecast

Almanac

Astronomy

Dec. 29, 2014 Rise Set
Actual Time
Civil Twilight
Nautical Twilight
Astronomical Twilight
Moon
Length of Visible Light
Length of Day
Tomorrow will be .
, % of the Moon is Illuminated

Today's Extremes

State Highs State Lows

Community

WunderPhotos

Upload Photos

1,781,553 photos uploaded!

WunderBlogs® & News

Nearby

Air Quality

  Air Quality AQ Index Pollutant
Not available.

Snow Depth

Station Depth Elevation

Earthquake Activity

City Distance Mag. Time & Date
Minimum magnitude displayed is 2.5.

Coastal Water Temperatures

Place Temperature

Nearby Weather Stations